CEFAS Endeavour — VQHF3 — position and weather

sailwx.info

Track history (hours):
 
Tides and Currents Weather Stations Pressure Air Temp Water Temp Dewpoint Dewpoint Depression Visibility Wind Speed Wind Dir Waves Ship Positions

Oceanographic research ship CEFAS Endeavour (UK)

Detailed information on ship capabilities available from University of Delaware's Ocean Information Center.

Last reported at 2015-Jul-28 09:30 UTC. Time now 2015-Jul-28 10:23 UTC.
Position N 51°19' E 002°08'.

Length 74 m; draft 5.3 m.

Type: Cargo ship. MMSI: 235005270.

Date/timePositionNaut miles runAvg speedWind from/ knotsBaromVisibWave heightAir tempDewpointWater temp
2015-Jul-28 09:30N 51°19' E 002°08'1111.6
2015-Jul-28 08:33N 51°26' E 001°55'9 8.6
2015-Jul-28 07:33N 51°29' E 001°42'5 4.6
2015-Jul-28 06:33N 51°25' E 001°44'9 9.2
2015-Jul-28 05:34N 51°15' E 001°44'4 3.7
2015-Jul-28 04:33N 51°15' E 001°38'2 2.4
2015-Jul-28 03:31N 51°17' E 001°36'0 0.1
2015-Jul-28 02:31N 51°17' E 001°36'0 0.0
2015-Jul-28 01:31N 51°17' E 001°36'0 0.0
2015-Jul-28 00:31N 51°17' E 001°36'0 0.0
2015-Jul-27 23:31N 51°17' E 001°36'0 0.0
2015-Jul-27 22:31N 51°17' E 001°36'0 0.0
2015-Jul-27 21:31N 51°17' E 001°36'0 0.0
2015-Jul-27 20:31N 51°17' E 001°36'0 0.0
2015-Jul-27 19:31N 51°17' E 001°36'5 5.0
2015-Jul-27 18:34N 51°12' E 001°36'1010.4
2015-Jul-27 17:33N 51°05' E 001°24'1010.2
2015-Jul-27 16:33N 50°59' E 001°11'1310.4
2015-Jul-27 15:17N 50°52' E 000°53'3 3.7
2015-Jul-27 14:33N 50°52' E 000°49'2 1.6
2015-Jul-27 13:34N 50°51' E 000°46'2 1.6
2015-Jul-27 12:33N 50°52' E 000°49'3 2.7
2015-Jul-27 11:33N 50°49' E 000°48'3 3.3
2015-Jul-27 10:34N 50°49' E 000°53'7 6.9
2015-Jul-27 09:33N 50°51' E 001°03'8 5.9
2015-Jul-27 08:11N 50°58' E 001°10'3 3.3
2015-Jul-27 07:24N 50°60' E 001°13'5 5.0
2015-Jul-27 06:26N 51°02' E 001°06'2 2.1
2015-Jul-27 05:33N 51°00' E 001°04'3 0.8
2015-Jul-27 02:26N 51°01' E 001°08'2 0.5
2015-Jul-26 22:34N 50°59' E 001°09'7 5.7
2015-Jul-26 21:21N 50°54' E 001°01'5 6.0
2015-Jul-26 20:34N 50°51' E 000°55'6 5.6
2015-Jul-26 19:34N 50°48' E 000°48'1 1.1
2015-Jul-26 18:34N 50°47' E 000°47'1 0.5
2015-Jul-26 17:34N 50°47' E 000°48'1 0.5
2015-Jul-26 16:33N 50°47' E 000°49'0 0.5
2015-Jul-26 15:33N 50°47' E 000°49'1 0.8
2015-Jul-26 14:34N 50°48' E 000°50'1 1.2
2015-Jul-26 13:33N 50°47' E 000°49'3 2.6
2015-Jul-26 12:33N 50°47' E 000°45'4 3.6
2015-Jul-26 11:33N 50°46' E 000°39'9 9.4
2015-Jul-26 10:34N 50°39' E 000°28'11 8.7
2015-Jul-26 09:20N 50°29' E 000°30'3 2.3
2015-Jul-26 08:09N 50°29' E 000°25'4 3.4
2015-Jul-26 07:05N 50°29' E 000°20'6 1.3
2015-Jul-26 02:32N 50°33' E 000°13'7 6.7
2015-Jul-26 01:29N 50°40' E 000°14'4 4.1
2015-Jul-26 00:34N 50°42' E 000°19'3 2.7
2015-Jul-25 23:31N 50°42' E 000°15'3 2.7
2015-Jul-25 22:33N 50°42' E 000°19'2 1.7
2015-Jul-25 21:34N 50°42' E 000°16'3 3.0
2015-Jul-25 20:34N 50°42' E 000°21'2 2.4
2015-Jul-25 19:33N 50°42' E 000°24'3 3.0
2015-Jul-25 18:33N 50°44' E 000°28'4 3.8
2015-Jul-25 17:33N 50°48' E 000°31'4 3.7
2015-Jul-25 16:34N 50°50' E 000°36'5 5.5
2015-Jul-25 15:34N 50°45' E 000°30'3 3.2
2015-Jul-25 14:33N 50°46' E 000°35'5 5.4
2015-Jul-25 13:34N 50°41' E 000°35'2 2.0
2015-Jul-25 12:33N 50°41' E 000°31'6 6.1
2015-Jul-25 11:34N 50°42' E 000°22'8 8.3
2015-Jul-25 10:34N 50°39' E 000°11'4 4.1
2015-Jul-25 09:34N 50°39' E 000°04'7 3.5
2015-Jul-25 07:28N 50°46' W 000°00'11 3.8
2015-Jul-25 04:33N 50°47' W 000°17'1 0.3
2015-Jul-24 23:23N 50°46' W 000°15'0 0.1
2015-Jul-24 22:05N 50°46' W 000°15'0 0.0
2015-Jul-24 19:17N 50°46' W 000°15'1 0.3
2015-Jul-24 16:30N 50°47' W 000°16'4 4.6
2015-Jul-24 15:33N 50°44' W 000°20'1 0.5
2015-Jul-24 14:24N 50°44' W 000°19'7 8.7
2015-Jul-24 13:33N 50°41' W 000°30'2 2.0
2015-Jul-24 12:26N 50°40' W 000°33'1 1.7
2015-Jul-24 11:34N 50°40' W 000°31'5 4.9
2015-Jul-24 10:33N 50°35' W 000°33'6 3.1
2015-Jul-24 08:30N 50°29' W 000°37'6 6.1
2015-Jul-24 07:33N 50°34' W 000°42'6 6.0
2015-Jul-24 06:33N 50°38' W 000°49'2 2.3
2015-Jul-24 05:33N 50°39' W 000°52'4 4.1
2015-Jul-24 04:33N 50°43' W 000°55'1 1.1
2015-Jul-24 03:33N 50°42' W 000°53'7 7.4
2015-Jul-24 02:33N 50°39' W 000°43'8 7.8
2015-Jul-24 01:32N 50°37' W 000°31'31 7.9
2015-Jul-23 21:32N 50°35' E 000°18'9 9.3
2015-Jul-23 20:33N 50°36' E 000°32'1010.3
2015-Jul-23 19:33N 50°41' E 000°46'10 9.9
2015-Jul-23 18:33N 50°47' E 000°59'9 9.0
2015-Jul-23 17:33N 50°52' E 001°11'16 6.7
2015-Jul-23 15:11N 50°56' E 001°35'2 3.2
2015-Jul-23 14:27N 50°54' E 001°33'3 1.6
2015-Jul-23 12:33N 50°53' E 001°29'5 2.7
2015-Jul-23 10:31N 50°48' E 001°34'13 0.7
2015-Jul-22 15:22N 50°36' E 001°33'71 2.4
2015-Jul-21 10:05N 49°51' E 000°06'2 3.2
2015-Jul-21 09:22N 49°49' E 000°04'6 2.0
2015-Jul-21 06:29N 49°44' E 000°07'6 6.2
2015-Jul-21 05:33N 49°38' E 000°04'3 3.2
2015-Jul-21 04:33N 49°35' E 000°02'3 2.8
2015-Jul-21 03:33N 49°38' E 000°03'0 0.0
2015-Jul-21 02:33N 49°38' E 000°03'0 0.0
2015-Jul-21 01:33N 49°38' E 000°03'0 0.0
2015-Jul-21 00:33N 49°38' E 000°03'0 0.0
2015-Jul-20 23:33N 49°38' E 000°03'0 0.0
2015-Jul-20 22:33N 49°38' E 000°03'0 0.1
2015-Jul-20 21:33N 49°38' E 000°03'0 0.1
2015-Jul-20 20:33N 49°38' E 000°03'0 0.0
2015-Jul-20 19:33N 49°38' E 000°03'0 0.1
2015-Jul-20 18:33N 49°38' E 000°03'3 2.8
2015-Jul-20 17:33N 49°36' W 000°01'4 3.9
2015-Jul-20 16:33N 49°34' W 000°05'6 5.9
2015-Jul-20 15:33N 49°28' W 000°04'5 5.1
2015-Jul-20 14:33N 49°24' W 000°09'5 5.5
2015-Jul-20 13:33N 49°23' W 000°17'5 4.5
2015-Jul-20 12:33N 49°23' W 000°24'1 0.6
2015-Jul-20 11:33N 49°23' W 000°25'7 7.0
2015-Jul-20 10:33N 49°25' W 000°35'5 5.4
2015-Jul-20 09:33N 49°24' W 000°44'1 1.1
2015-Jul-20 08:33N 49°25' W 000°44'17 1.2
2015-Jul-19 18:17N 49°38' W 000°59'912.8
2015-Jul-19 17:34N 49°44' W 000°49'5 5.4
2015-Jul-19 16:34N 49°46' W 000°41'4 4.3
2015-Jul-19 15:34N 49°47' W 000°48'1010.4
2015-Jul-19 14:34N 49°51' W 001°02'31 7.3
2015-Jul-19 10:23N 50°13' W 001°36'7 7.2
2015-Jul-19 09:29N 50°15' W 001°45'22 6.5
2015-Jul-19 06:07N 50°22' W 001°13'711.0
2015-Jul-19 05:28N 50°27' W 001°20'5 3.8
2015-Jul-19 04:10N 50°30' W 001°27'1 0.2
2015-Jul-19 00:33N 50°30' W 001°28'3 0.6
2015-Jul-18 19:32N 50°28' W 001°32'8 4.0
2015-Jul-18 17:32N 50°26' W 001°44'1 1.0
2015-Jul-18 16:32N 50°25' W 001°45'3 3.4
2015-Jul-18 15:32N 50°27' W 001°49'6 5.9
2015-Jul-18 14:33N 50°32' W 001°46'6 6.1
2015-Jul-18 13:33N 50°38' W 001°50'2 2.1
2015-Jul-18 12:33N 50°39' W 001°48'3 3.5
2015-Jul-18 11:33N 50°42' W 001°51'5 5.1
2015-Jul-18 10:33N 50°41' W 001°43'2 1.8
2015-Jul-18 09:33N 50°42' W 001°40'  
Track history (hours):
 
Tides and Currents Weather Stations Pressure Air Temp Water Temp Dewpoint Dewpoint Depression Visibility Wind Speed Wind Dir Waves Ship Positions

Oceanographic research ship CEFAS Endeavour (UK)

Detailed information on ship capabilities available from University of Delaware's Ocean Information Center.

Last reported at 2015-Jul-28 09:30 UTC. Time now 2015-Jul-28 10:23 UTC.
Position N 51°19' E 002°08'.

Length 74 m; draft 5.3 m.

Type: Cargo ship. MMSI: 235005270.

Date/timePositionNaut miles runAvg speedWind from/ knotsBaromVisibWave heightAir tempDewpointWater temp
2015-Jul-28 09:30N 51°19' E 002°08'1111.6
2015-Jul-28 08:33N 51°26' E 001°55'9 8.6
2015-Jul-28 07:33N 51°29' E 001°42'5 4.6
2015-Jul-28 06:33N 51°25' E 001°44'9 9.2
2015-Jul-28 05:34N 51°15' E 001°44'4 3.7
2015-Jul-28 04:33N 51°15' E 001°38'2 2.4
2015-Jul-28 03:31N 51°17' E 001°36'0 0.1
2015-Jul-28 02:31N 51°17' E 001°36'0 0.0
2015-Jul-28 01:31N 51°17' E 001°36'0 0.0
2015-Jul-28 00:31N 51°17' E 001°36'0 0.0
2015-Jul-27 23:31N 51°17' E 001°36'0 0.0
2015-Jul-27 22:31N 51°17' E 001°36'0 0.0
2015-Jul-27 21:31N 51°17' E 001°36'0 0.0
2015-Jul-27 20:31N 51°17' E 001°36'0 0.0
2015-Jul-27 19:31N 51°17' E 001°36'5 5.0
2015-Jul-27 18:34N 51°12' E 001°36'1010.4
2015-Jul-27 17:33N 51°05' E 001°24'1010.2
2015-Jul-27 16:33N 50°59' E 001°11'1310.4
2015-Jul-27 15:17N 50°52' E 000°53'3 3.7
2015-Jul-27 14:33N 50°52' E 000°49'2 1.6
2015-Jul-27 13:34N 50°51' E 000°46'2 1.6
2015-Jul-27 12:33N 50°52' E 000°49'3 2.7
2015-Jul-27 11:33N 50°49' E 000°48'3 3.3
2015-Jul-27 10:34N 50°49' E 000°53'7 6.9
2015-Jul-27 09:33N 50°51' E 001°03'8 5.9
2015-Jul-27 08:11N 50°58' E 001°10'3 3.3
2015-Jul-27 07:24N 50°60' E 001°13'5 5.0
2015-Jul-27 06:26N 51°02' E 001°06'2 2.1
2015-Jul-27 05:33N 51°00' E 001°04'3 0.8
2015-Jul-27 02:26N 51°01' E 001°08'2 0.5
2015-Jul-26 22:34N 50°59' E 001°09'7 5.7
2015-Jul-26 21:21N 50°54' E 001°01'5 6.0
2015-Jul-26 20:34N 50°51' E 000°55'6 5.6
2015-Jul-26 19:34N 50°48' E 000°48'1 1.1
2015-Jul-26 18:34N 50°47' E 000°47'1 0.5
2015-Jul-26 17:34N 50°47' E 000°48'1 0.5
2015-Jul-26 16:33N 50°47' E 000°49'0 0.5
2015-Jul-26 15:33N 50°47' E 000°49'1 0.8
2015-Jul-26 14:34N 50°48' E 000°50'1 1.2
2015-Jul-26 13:33N 50°47' E 000°49'3 2.6
2015-Jul-26 12:33N 50°47' E 000°45'4 3.6
2015-Jul-26 11:33N 50°46' E 000°39'9 9.4
2015-Jul-26 10:34N 50°39' E 000°28'11 8.7
2015-Jul-26 09:20N 50°29' E 000°30'3 2.3
2015-Jul-26 08:09N 50°29' E 000°25'4 3.4
2015-Jul-26 07:05N 50°29' E 000°20'6 1.3
2015-Jul-26 02:32N 50°33' E 000°13'7 6.7
2015-Jul-26 01:29N 50°40' E 000°14'4 4.1
2015-Jul-26 00:34N 50°42' E 000°19'3 2.7
2015-Jul-25 23:31N 50°42' E 000°15'3 2.7
2015-Jul-25 22:33N 50°42' E 000°19'2 1.7
2015-Jul-25 21:34N 50°42' E 000°16'3 3.0
2015-Jul-25 20:34N 50°42' E 000°21'2 2.4
2015-Jul-25 19:33N 50°42' E 000°24'3 3.0
2015-Jul-25 18:33N 50°44' E 000°28'4 3.8
2015-Jul-25 17:33N 50°48' E 000°31'4 3.7
2015-Jul-25 16:34N 50°50' E 000°36'5 5.5
2015-Jul-25 15:34N 50°45' E 000°30'3 3.2
2015-Jul-25 14:33N 50°46' E 000°35'5 5.4
2015-Jul-25 13:34N 50°41' E 000°35'2 2.0
2015-Jul-25 12:33N 50°41' E 000°31'6 6.1
2015-Jul-25 11:34N 50°42' E 000°22'8 8.3
2015-Jul-25 10:34N 50°39' E 000°11'4 4.1
2015-Jul-25 09:34N 50°39' E 000°04'7 3.5
2015-Jul-25 07:28N 50°46' W 000°00'11 3.8
2015-Jul-25 04:33N 50°47' W 000°17'1 0.3
2015-Jul-24 23:23N 50°46' W 000°15'0 0.1
2015-Jul-24 22:05N 50°46' W 000°15'0 0.0
2015-Jul-24 19:17N 50°46' W 000°15'1 0.3
2015-Jul-24 16:30N 50°47' W 000°16'4 4.6
2015-Jul-24 15:33N 50°44' W 000°20'1 0.5
2015-Jul-24 14:24N 50°44' W 000°19'7 8.7
2015-Jul-24 13:33N 50°41' W 000°30'2 2.0
2015-Jul-24 12:26N 50°40' W 000°33'1 1.7
2015-Jul-24 11:34N 50°40' W 000°31'5 4.9
2015-Jul-24 10:33N 50°35' W 000°33'6 3.1
2015-Jul-24 08:30N 50°29' W 000°37'6 6.1
2015-Jul-24 07:33N 50°34' W 000°42'6 6.0
2015-Jul-24 06:33N 50°38' W 000°49'2 2.3
2015-Jul-24 05:33N 50°39' W 000°52'4 4.1
2015-Jul-24 04:33N 50°43' W 000°55'1 1.1
2015-Jul-24 03:33N 50°42' W 000°53'7 7.4
2015-Jul-24 02:33N 50°39' W 000°43'8 7.8
2015-Jul-24 01:32N 50°37' W 000°31'31 7.9
2015-Jul-23 21:32N 50°35' E 000°18'9 9.3
2015-Jul-23 20:33N 50°36' E 000°32'1010.3
2015-Jul-23 19:33N 50°41' E 000°46'10 9.9
2015-Jul-23 18:33N 50°47' E 000°59'9 9.0
2015-Jul-23 17:33N 50°52' E 001°11'16 6.7
2015-Jul-23 15:11N 50°56' E 001°35'2 3.2
2015-Jul-23 14:27N 50°54' E 001°33'3 1.6
2015-Jul-23 12:33N 50°53' E 001°29'5 2.7
2015-Jul-23 10:31N 50°48' E 001°34'13 0.7
2015-Jul-22 15:22N 50°36' E 001°33'71 2.4
2015-Jul-21 10:05N 49°51' E 000°06'2 3.2
2015-Jul-21 09:22N 49°49' E 000°04'6 2.0
2015-Jul-21 06:29N 49°44' E 000°07'6 6.2
2015-Jul-21 05:33N 49°38' E 000°04'3 3.2
2015-Jul-21 04:33N 49°35' E 000°02'3 2.8
2015-Jul-21 03:33N 49°38' E 000°03'0 0.0
2015-Jul-21 02:33N 49°38' E 000°03'0 0.0
2015-Jul-21 01:33N 49°38' E 000°03'0 0.0
2015-Jul-21 00:33N 49°38' E 000°03'0 0.0
2015-Jul-20 23:33N 49°38' E 000°03'0 0.0
2015-Jul-20 22:33N 49°38' E 000°03'0 0.1
2015-Jul-20 21:33N 49°38' E 000°03'0 0.1
2015-Jul-20 20:33N 49°38' E 000°03'0 0.0
2015-Jul-20 19:33N 49°38' E 000°03'0 0.1
2015-Jul-20 18:33N 49°38' E 000°03'3 2.8
2015-Jul-20 17:33N 49°36' W 000°01'4 3.9
2015-Jul-20 16:33N 49°34' W 000°05'6 5.9
2015-Jul-20 15:33N 49°28' W 000°04'5 5.1
2015-Jul-20 14:33N 49°24' W 000°09'5 5.5
2015-Jul-20 13:33N 49°23' W 000°17'5 4.5
2015-Jul-20 12:33N 49°23' W 000°24'1 0.6
2015-Jul-20 11:33N 49°23' W 000°25'7 7.0
2015-Jul-20 10:33N 49°25' W 000°35'5 5.4
2015-Jul-20 09:33N 49°24' W 000°44'1 1.1
2015-Jul-20 08:33N 49°25' W 000°44'17 1.2
2015-Jul-19 18:17N 49°38' W 000°59'912.8
2015-Jul-19 17:34N 49°44' W 000°49'5 5.4
2015-Jul-19 16:34N 49°46' W 000°41'4 4.3
2015-Jul-19 15:34N 49°47' W 000°48'1010.4
2015-Jul-19 14:34N 49°51' W 001°02'31 7.3
2015-Jul-19 10:23N 50°13' W 001°36'7 7.2
2015-Jul-19 09:29N 50°15' W 001°45'22 6.5
2015-Jul-19 06:07N 50°22' W 001°13'711.0
2015-Jul-19 05:28N 50°27' W 001°20'5 3.8
2015-Jul-19 04:10N 50°30' W 001°27'1 0.2
2015-Jul-19 00:33N 50°30' W 001°28'3 0.6
2015-Jul-18 19:32N 50°28' W 001°32'8 4.0
2015-Jul-18 17:32N 50°26' W 001°44'1 1.0
2015-Jul-18 16:32N 50°25' W 001°45'3 3.4
2015-Jul-18 15:32N 50°27' W 001°49'6 5.9
2015-Jul-18 14:33N 50°32' W 001°46'6 6.1
2015-Jul-18 13:33N 50°38' W 001°50'2 2.1
2015-Jul-18 12:33N 50°39' W 001°48'3 3.5
2015-Jul-18 11:33N 50°42' W 001°51'5 5.1
2015-Jul-18 10:33N 50°41' W 001°43'2 1.8
2015-Jul-18 09:33N 50°42' W 001°40'  

Dump ship's entire track history